sensor_id;sensor_type;location;lat;lon;timestamp;P1;durP1;ratioP1;P2;durP2;ratioP2
12314;SDS011;23886;46.614;14.276;2022-12-22T00:02:09;31.20;;;22.40;;
12314;SDS011;23886;46.614;14.276;2022-12-22T00:05:06;27.40;;;20.70;;
12314;SDS011;23886;46.614;14.276;2022-12-22T00:07:55;28.30;;;20.47;;
12314;SDS011;23886;46.614;14.276;2022-12-22T00:10:40;27.77;;;20.40;;
12314;SDS011;23886;46.614;14.276;2022-12-22T00:13:25;28.33;;;21.57;;
12314;SDS011;23886;46.614;14.276;2022-12-22T00:16:10;27.37;;;20.47;;
12314;SDS011;23886;46.614;14.276;2022-12-22T00:18:54;27.30;;;19.70;;
12314;SDS011;23886;46.614;14.276;2022-12-22T00:21:39;24.93;;;19.80;;
12314;SDS011;23886;46.614;14.276;2022-12-22T00:24:23;28.57;;;20.30;;
12314;SDS011;23886;46.614;14.276;2022-12-22T00:27:08;26.23;;;19.10;;
12314;SDS011;23886;46.614;14.276;2022-12-22T00:29:59;28.17;;;19.67;;
12314;SDS011;23886;46.614;14.276;2022-12-22T00:32:45;27.07;;;19.13;;
12314;SDS011;23886;46.614;14.276;2022-12-22T00:35:30;25.60;;;20.10;;
12314;SDS011;23886;46.614;14.276;2022-12-22T00:38:15;25.20;;;18.80;;
12314;SDS011;23886;46.614;14.276;2022-12-22T00:41:01;25.27;;;18.03;;
12314;SDS011;23886;46.614;14.276;2022-12-22T00:43:46;26.20;;;19.60;;
12314;SDS011;23886;46.614;14.276;2022-12-22T00:46:32;30.60;;;21.87;;
12314;SDS011;23886;46.614;14.276;2022-12-22T00:49:18;28.60;;;20.17;;
12314;SDS011;23886;46.614;14.276;2022-12-22T00:52:03;25.83;;;19.47;;
12314;SDS011;23886;46.614;14.276;2022-12-22T00:54:48;28.93;;;20.57;;
12314;SDS011;23886;46.614;14.276;2022-12-22T00:57:36;28.90;;;20.27;;
12314;SDS011;23886;46.614;14.276;2022-12-22T01:00:20;26.17;;;19.10;;
12314;SDS011;23886;46.614;14.276;2022-12-22T01:03:06;28.57;;;19.90;;
12314;SDS011;23886;46.614;14.276;2022-12-22T01:05:52;25.70;;;18.63;;
12314;SDS011;23886;46.614;14.276;2022-12-22T01:08:37;25.23;;;18.83;;
12314;SDS011;23886;46.614;14.276;2022-12-22T01:11:22;25.00;;;18.83;;
12314;SDS011;23886;46.614;14.276;2022-12-22T01:14:07;25.33;;;18.93;;
12314;SDS011;23886;46.614;14.276;2022-12-22T01:16:53;25.47;;;18.87;;
12314;SDS011;23886;46.614;14.276;2022-12-22T01:19:38;26.17;;;18.67;;
12314;SDS011;23886;46.614;14.276;2022-12-22T01:22:23;24.47;;;19.07;;
12314;SDS011;23886;46.614;14.276;2022-12-22T01:25:08;24.23;;;17.90;;
12314;SDS011;23886;46.614;14.276;2022-12-22T01:27:55;26.87;;;19.10;;
12314;SDS011;23886;46.614;14.276;2022-12-22T01:30:40;23.63;;;17.50;;
12314;SDS011;23886;46.614;14.276;2022-12-22T01:33:25;24.80;;;17.90;;
12314;SDS011;23886;46.614;14.276;2022-12-22T01:36:11;22.93;;;17.97;;
12314;SDS011;23886;46.614;14.276;2022-12-22T01:38:55;23.80;;;18.10;;
12314;SDS011;23886;46.614;14.276;2022-12-22T01:41:39;23.43;;;17.07;;
12314;SDS011;23886;46.614;14.276;2022-12-22T01:44:24;22.00;;;17.37;;
12314;SDS011;23886;46.614;14.276;2022-12-22T01:47:30;20.93;;;16.43;;
12314;SDS011;23886;46.614;14.276;2022-12-22T01:50:17;22.90;;;16.73;;
12314;SDS011;23886;46.614;14.276;2022-12-22T01:53:11;20.77;;;16.87;;
12314;SDS011;23886;46.614;14.276;2022-12-22T01:55:59;21.00;;;16.23;;
12314;SDS011;23886;46.614;14.276;2022-12-22T01:58:45;21.80;;;16.63;;
12314;SDS011;23886;46.614;14.276;2022-12-22T02:01:32;22.77;;;16.77;;
12314;SDS011;23886;46.614;14.276;2022-12-22T02:04:18;22.47;;;17.23;;
12314;SDS011;23886;46.614;14.276;2022-12-22T02:07:08;21.03;;;16.43;;
12314;SDS011;23886;46.614;14.276;2022-12-22T02:10:24;20.80;;;16.03;;
12314;SDS011;23886;46.614;14.276;2022-12-22T02:13:24;22.37;;;17.03;;
12314;SDS011;23886;46.614;14.276;2022-12-22T02:16:17;23.33;;;17.70;;
12314;SDS011;23886;46.614;14.276;2022-12-22T02:19:09;22.10;;;16.43;;
12314;SDS011;23886;46.614;14.276;2022-12-22T02:22:07;21.80;;;16.43;;
12314;SDS011;23886;46.614;14.276;2022-12-22T02:25:00;20.13;;;16.00;;
12314;SDS011;23886;46.614;14.276;2022-12-22T02:27:51;21.77;;;16.57;;
12314;SDS011;23886;46.614;14.276;2022-12-22T02:30:37;20.97;;;16.50;;
12314;SDS011;23886;46.614;14.276;2022-12-22T02:33:22;21.93;;;17.20;;
12314;SDS011;23886;46.614;14.276;2022-12-22T02:36:11;21.53;;;16.80;;
12314;SDS011;23886;46.614;14.276;2022-12-22T02:39:02;20.43;;;16.00;;
12314;SDS011;23886;46.614;14.276;2022-12-22T02:41:55;21.63;;;16.00;;
12314;SDS011;23886;46.614;14.276;2022-12-22T02:44:55;20.07;;;16.20;;
12314;SDS011;23886;46.614;14.276;2022-12-22T02:47:47;20.60;;;15.67;;
12314;SDS011;23886;46.614;14.276;2022-12-22T02:50:36;19.40;;;16.33;;
12314;SDS011;23886;46.614;14.276;2022-12-22T02:53:24;24.50;;;16.87;;
12314;SDS011;23886;46.614;14.276;2022-12-22T02:56:11;23.97;;;18.17;;
12314;SDS011;23886;46.614;14.276;2022-12-22T02:58:55;24.47;;;18.30;;
12314;SDS011;23886;46.614;14.276;2022-12-22T03:01:42;25.27;;;17.80;;
12314;SDS011;23886;46.614;14.276;2022-12-22T03:04:28;23.50;;;17.83;;
12314;SDS011;23886;46.614;14.276;2022-12-22T03:07:12;21.77;;;17.37;;
12314;SDS011;23886;46.614;14.276;2022-12-22T03:09:57;24.17;;;18.30;;
12314;SDS011;23886;46.614;14.276;2022-12-22T03:12:41;24.57;;;18.00;;
12314;SDS011;23886;46.614;14.276;2022-12-22T03:15:25;27.10;;;19.20;;
12314;SDS011;23886;46.614;14.276;2022-12-22T03:18:11;23.80;;;18.23;;
12314;SDS011;23886;46.614;14.276;2022-12-22T03:20:56;25.30;;;18.43;;
12314;SDS011;23886;46.614;14.276;2022-12-22T03:23:41;26.80;;;19.77;;
12314;SDS011;23886;46.614;14.276;2022-12-22T03:26:26;23.67;;;18.90;;
12314;SDS011;23886;46.614;14.276;2022-12-22T03:28:54;25.43;;;19.63;;
12314;SDS011;23886;46.614;14.276;2022-12-22T03:31:21;32.40;;;21.73;;
12314;SDS011;23886;46.614;14.276;2022-12-22T03:33:49;28.77;;;21.67;;
12314;SDS011;23886;46.614;14.276;2022-12-22T03:36:16;33.60;;;23.13;;
12314;SDS011;23886;46.614;14.276;2022-12-22T03:38:43;33.37;;;22.90;;
12314;SDS011;23886;46.614;14.276;2022-12-22T03:41:10;33.93;;;23.00;;
12314;SDS011;23886;46.614;14.276;2022-12-22T03:43:57;34.37;;;22.83;;
12314;SDS011;23886;46.614;14.276;2022-12-22T03:46:41;32.60;;;21.00;;
12314;SDS011;23886;46.614;14.276;2022-12-22T03:49:09;30.83;;;22.03;;
12314;SDS011;23886;46.614;14.276;2022-12-22T03:51:37;31.97;;;21.83;;
12314;SDS011;23886;46.614;14.276;2022-12-22T03:54:06;32.83;;;21.07;;
12314;SDS011;23886;46.614;14.276;2022-12-22T03:56:33;35.53;;;22.33;;
12314;SDS011;23886;46.614;14.276;2022-12-22T03:59:00;31.00;;;21.83;;
12314;SDS011;23886;46.614;14.276;2022-12-22T04:01:28;31.20;;;20.23;;
12314;SDS011;23886;46.614;14.276;2022-12-22T04:03:55;32.83;;;20.87;;
12314;SDS011;23886;46.614;14.276;2022-12-22T04:06:23;29.90;;;20.90;;
12314;SDS011;23886;46.614;14.276;2022-12-22T04:08:50;30.17;;;21.13;;
12314;SDS011;23886;46.614;14.276;2022-12-22T04:11:17;31.17;;;21.33;;
12314;SDS011;23886;46.614;14.276;2022-12-22T04:14:02;31.73;;;21.47;;
12314;SDS011;23886;46.614;14.276;2022-12-22T04:16:29;35.03;;;22.37;;
12314;SDS011;23886;46.614;14.276;2022-12-22T04:18:56;32.13;;;20.80;;
12314;SDS011;23886;46.614;14.276;2022-12-22T04:21:25;33.43;;;21.30;;
12314;SDS011;23886;46.614;14.276;2022-12-22T04:23:52;34.43;;;21.47;;
12314;SDS011;23886;46.614;14.276;2022-12-22T04:26:20;33.23;;;21.57;;
12314;SDS011;23886;46.614;14.276;2022-12-22T04:28:49;35.23;;;22.47;;
12314;SDS011;23886;46.614;14.276;2022-12-22T04:31:16;32.03;;;20.80;;
12314;SDS011;23886;46.614;14.276;2022-12-22T04:33:43;31.13;;;21.30;;
12314;SDS011;23886;46.614;14.276;2022-12-22T04:36:10;29.83;;;20.70;;
12314;SDS011;23886;46.614;14.276;2022-12-22T04:38:40;27.13;;;20.43;;
12314;SDS011;23886;46.614;14.276;2022-12-22T04:41:07;34.67;;;21.37;;
12314;SDS011;23886;46.614;14.276;2022-12-22T04:43:34;33.60;;;22.07;;
12314;SDS011;23886;46.614;14.276;2022-12-22T04:46:02;30.90;;;20.87;;
12314;SDS011;23886;46.614;14.276;2022-12-22T04:48:29;33.87;;;23.77;;
12314;SDS011;23886;46.614;14.276;2022-12-22T04:50:57;32.43;;;22.27;;
12314;SDS011;23886;46.614;14.276;2022-12-22T04:53:25;30.70;;;22.17;;
12314;SDS011;23886;46.614;14.276;2022-12-22T04:55:55;29.77;;;21.57;;
12314;SDS011;23886;46.614;14.276;2022-12-22T04:58:24;31.63;;;22.37;;
12314;SDS011;23886;46.614;14.276;2022-12-22T05:00:52;34.03;;;23.50;;
12314;SDS011;23886;46.614;14.276;2022-12-22T05:03:19;35.27;;;23.00;;
12314;SDS011;23886;46.614;14.276;2022-12-22T05:05:47;32.90;;;22.43;;
12314;SDS011;23886;46.614;14.276;2022-12-22T05:08:14;32.37;;;22.73;;
12314;SDS011;23886;46.614;14.276;2022-12-22T05:10:40;33.33;;;22.30;;
12314;SDS011;23886;46.614;14.276;2022-12-22T05:13:09;34.47;;;22.40;;
12314;SDS011;23886;46.614;14.276;2022-12-22T05:15:36;34.13;;;23.03;;
12314;SDS011;23886;46.614;14.276;2022-12-22T05:18:03;35.20;;;23.50;;
12314;SDS011;23886;46.614;14.276;2022-12-22T05:20:30;36.73;;;24.67;;
12314;SDS011;23886;46.614;14.276;2022-12-22T05:22:57;39.53;;;25.97;;
12314;SDS011;23886;46.614;14.276;2022-12-22T05:25:25;39.73;;;25.40;;
12314;SDS011;23886;46.614;14.276;2022-12-22T05:27:52;36.80;;;25.00;;
12314;SDS011;23886;46.614;14.276;2022-12-22T05:30:20;38.33;;;25.43;;
12314;SDS011;23886;46.614;14.276;2022-12-22T05:32:47;37.20;;;25.37;;
12314;SDS011;23886;46.614;14.276;2022-12-22T05:35:14;42.07;;;24.57;;
12314;SDS011;23886;46.614;14.276;2022-12-22T05:37:41;38.07;;;24.13;;
12314;SDS011;23886;46.614;14.276;2022-12-22T05:40:09;36.97;;;23.17;;
12314;SDS011;23886;46.614;14.276;2022-12-22T05:42:37;35.80;;;23.20;;
12314;SDS011;23886;46.614;14.276;2022-12-22T05:45:05;36.47;;;23.10;;
12314;SDS011;23886;46.614;14.276;2022-12-22T05:47:36;34.73;;;21.97;;
12314;SDS011;23886;46.614;14.276;2022-12-22T05:50:03;39.27;;;24.60;;
12314;SDS011;23886;46.614;14.276;2022-12-22T05:52:31;34.97;;;22.97;;
12314;SDS011;23886;46.614;14.276;2022-12-22T05:54:58;38.27;;;23.87;;
12314;SDS011;23886;46.614;14.276;2022-12-22T05:57:25;36.80;;;23.53;;
12314;SDS011;23886;46.614;14.276;2022-12-22T05:59:52;37.80;;;23.60;;
12314;SDS011;23886;46.614;14.276;2022-12-22T06:02:19;42.53;;;25.00;;
12314;SDS011;23886;46.614;14.276;2022-12-22T06:04:48;40.63;;;24.27;;
12314;SDS011;23886;46.614;14.276;2022-12-22T06:07:15;37.13;;;23.77;;
12314;SDS011;23886;46.614;14.276;2022-12-22T06:09:42;38.47;;;24.27;;
12314;SDS011;23886;46.614;14.276;2022-12-22T06:12:09;32.30;;;22.07;;
12314;SDS011;23886;46.614;14.276;2022-12-22T06:14:36;30.93;;;21.17;;
12314;SDS011;23886;46.614;14.276;2022-12-22T06:17:03;31.10;;;21.33;;
12314;SDS011;23886;46.614;14.276;2022-12-22T06:19:30;29.73;;;20.43;;
12314;SDS011;23886;46.614;14.276;2022-12-22T06:21:58;28.70;;;20.00;;
12314;SDS011;23886;46.614;14.276;2022-12-22T06:24:25;26.47;;;18.73;;
12314;SDS011;23886;46.614;14.276;2022-12-22T06:26:53;27.07;;;19.80;;
12314;SDS011;23886;46.614;14.276;2022-12-22T06:29:20;26.30;;;19.33;;
12314;SDS011;23886;46.614;14.276;2022-12-22T06:31:47;26.90;;;19.20;;
12314;SDS011;23886;46.614;14.276;2022-12-22T06:34:14;24.63;;;18.13;;
12314;SDS011;23886;46.614;14.276;2022-12-22T06:36:42;23.87;;;17.27;;
12314;SDS011;23886;46.614;14.276;2022-12-22T06:39:11;22.70;;;17.27;;
12314;SDS011;23886;46.614;14.276;2022-12-22T06:41:39;23.63;;;17.10;;
12314;SDS011;23886;46.614;14.276;2022-12-22T06:44:24;20.50;;;16.30;;
12314;SDS011;23886;46.614;14.276;2022-12-22T06:46:51;22.67;;;16.30;;
12314;SDS011;23886;46.614;14.276;2022-12-22T06:49:18;20.53;;;16.33;;
12314;SDS011;23886;46.614;14.276;2022-12-22T06:51:46;23.00;;;16.80;;
12314;SDS011;23886;46.614;14.276;2022-12-22T06:54:14;23.57;;;17.80;;
12314;SDS011;23886;46.614;14.276;2022-12-22T06:56:44;27.53;;;18.67;;
12314;SDS011;23886;46.614;14.276;2022-12-22T06:59:11;24.50;;;17.63;;
12314;SDS011;23886;46.614;14.276;2022-12-22T07:01:38;31.97;;;22.13;;
12314;SDS011;23886;46.614;14.276;2022-12-22T07:04:06;37.27;;;26.73;;
12314;SDS011;23886;46.614;14.276;2022-12-22T07:06:33;35.67;;;27.60;;
12314;SDS011;23886;46.614;14.276;2022-12-22T07:09:00;34.07;;;24.97;;
12314;SDS011;23886;46.614;14.276;2022-12-22T07:11:29;37.30;;;23.93;;
12314;SDS011;23886;46.614;14.276;2022-12-22T07:13:56;34.97;;;22.30;;
12314;SDS011;23886;46.614;14.276;2022-12-22T07:16:23;34.37;;;21.73;;
12314;SDS011;23886;46.614;14.276;2022-12-22T07:18:50;38.73;;;24.07;;
12314;SDS011;23886;46.614;14.276;2022-12-22T07:21:17;37.77;;;22.80;;
12314;SDS011;23886;46.614;14.276;2022-12-22T07:23:44;30.33;;;22.73;;
12314;SDS011;23886;46.614;14.276;2022-12-22T07:26:11;33.00;;;25.30;;
12314;SDS011;23886;46.614;14.276;2022-12-22T07:28:39;33.67;;;24.27;;
12314;SDS011;23886;46.614;14.276;2022-12-22T07:31:07;27.30;;;20.47;;
12314;SDS011;23886;46.614;14.276;2022-12-22T07:33:34;27.33;;;19.50;;
12314;SDS011;23886;46.614;14.276;2022-12-22T07:36:05;26.37;;;19.40;;
12314;SDS011;23886;46.614;14.276;2022-12-22T07:38:34;24.43;;;17.67;;
12314;SDS011;23886;46.614;14.276;2022-12-22T07:41:02;24.97;;;18.07;;
12314;SDS011;23886;46.614;14.276;2022-12-22T07:43:51;27.83;;;18.17;;
12314;SDS011;23886;46.614;14.276;2022-12-22T07:46:17;23.33;;;17.50;;
12314;SDS011;23886;46.614;14.276;2022-12-22T07:48:44;26.97;;;19.13;;
12314;SDS011;23886;46.614;14.276;2022-12-22T07:51:30;27.47;;;19.17;;
12314;SDS011;23886;46.614;14.276;2022-12-22T07:53:58;26.20;;;19.10;;
12314;SDS011;23886;46.614;14.276;2022-12-22T07:56:25;27.87;;;19.73;;
12314;SDS011;23886;46.614;14.276;2022-12-22T07:58:53;29.60;;;19.93;;
12314;SDS011;23886;46.614;14.276;2022-12-22T08:01:20;37.17;;;24.63;;
12314;SDS011;23886;46.614;14.276;2022-12-22T08:03:47;30.63;;;21.30;;
12314;SDS011;23886;46.614;14.276;2022-12-22T08:06:14;33.03;;;21.33;;
12314;SDS011;23886;46.614;14.276;2022-12-22T08:08:41;31.80;;;21.33;;
12314;SDS011;23886;46.614;14.276;2022-12-22T08:11:08;28.53;;;19.03;;
12314;SDS011;23886;46.614;14.276;2022-12-22T08:13:35;24.40;;;17.27;;
12314;SDS011;23886;46.614;14.276;2022-12-22T08:16:04;22.37;;;15.70;;
12314;SDS011;23886;46.614;14.276;2022-12-22T08:18:32;22.10;;;16.13;;
12314;SDS011;23886;46.614;14.276;2022-12-22T08:21:00;21.00;;;15.30;;
12314;SDS011;23886;46.614;14.276;2022-12-22T08:23:28;20.77;;;14.90;;
12314;SDS011;23886;46.614;14.276;2022-12-22T08:25:56;29.33;;;18.63;;
12314;SDS011;23886;46.614;14.276;2022-12-22T08:28:26;28.50;;;18.43;;
12314;SDS011;23886;46.614;14.276;2022-12-22T08:30:54;22.13;;;16.03;;
12314;SDS011;23886;46.614;14.276;2022-12-22T08:33:23;25.30;;;17.00;;
12314;SDS011;23886;46.614;14.276;2022-12-22T08:35:50;21.17;;;16.03;;
12314;SDS011;23886;46.614;14.276;2022-12-22T08:38:17;22.13;;;16.23;;
12314;SDS011;23886;46.614;14.276;2022-12-22T08:40:44;20.70;;;15.20;;
12314;SDS011;23886;46.614;14.276;2022-12-22T08:43:12;20.10;;;14.93;;
12314;SDS011;23886;46.614;14.276;2022-12-22T08:45:40;20.77;;;14.73;;
12314;SDS011;23886;46.614;14.276;2022-12-22T08:48:07;23.90;;;15.90;;
12314;SDS011;23886;46.614;14.276;2022-12-22T08:50:36;20.77;;;15.10;;
12314;SDS011;23886;46.614;14.276;2022-12-22T08:53:03;18.20;;;14.67;;
12314;SDS011;23886;46.614;14.276;2022-12-22T08:55:31;22.23;;;15.43;;
12314;SDS011;23886;46.614;14.276;2022-12-22T08:57:58;20.93;;;14.80;;
12314;SDS011;23886;46.614;14.276;2022-12-22T09:00:25;19.17;;;14.73;;
12314;SDS011;23886;46.614;14.276;2022-12-22T09:02:52;18.73;;;15.07;;
12314;SDS011;23886;46.614;14.276;2022-12-22T09:05:19;20.57;;;14.97;;
12314;SDS011;23886;46.614;14.276;2022-12-22T09:07:47;18.77;;;14.93;;
12314;SDS011;23886;46.614;14.276;2022-12-22T09:10:14;18.90;;;14.83;;
12314;SDS011;23886;46.614;14.276;2022-12-22T09:12:41;21.47;;;15.97;;
12314;SDS011;23886;46.614;14.276;2022-12-22T09:15:09;21.13;;;15.10;;
12314;SDS011;23886;46.614;14.276;2022-12-22T09:17:36;20.37;;;15.23;;
12314;SDS011;23886;46.614;14.276;2022-12-22T09:20:03;23.27;;;19.50;;
12314;SDS011;23886;46.614;14.276;2022-12-22T09:22:31;22.37;;;17.30;;
12314;SDS011;23886;46.614;14.276;2022-12-22T09:24:59;24.03;;;17.33;;
12314;SDS011;23886;46.614;14.276;2022-12-22T09:27:26;26.40;;;20.47;;
12314;SDS011;23886;46.614;14.276;2022-12-22T09:29:55;19.63;;;15.83;;
12314;SDS011;23886;46.614;14.276;2022-12-22T09:32:22;20.40;;;16.20;;
12314;SDS011;23886;46.614;14.276;2022-12-22T09:34:48;23.10;;;16.97;;
12314;SDS011;23886;46.614;14.276;2022-12-22T09:37:16;20.13;;;15.80;;
12314;SDS011;23886;46.614;14.276;2022-12-22T09:39:44;23.97;;;19.60;;
12314;SDS011;23886;46.614;14.276;2022-12-22T09:42:13;20.60;;;16.30;;
12314;SDS011;23886;46.614;14.276;2022-12-22T09:44:43;19.63;;;15.60;;
12314;SDS011;23886;46.614;14.276;2022-12-22T09:47:15;17.83;;;14.37;;
12314;SDS011;23886;46.614;14.276;2022-12-22T09:49:47;17.80;;;14.07;;
12314;SDS011;23886;46.614;14.276;2022-12-22T09:52:21;13.73;;;12.20;;
12314;SDS011;23886;46.614;14.276;2022-12-22T09:54:52;13.10;;;11.20;;
12314;SDS011;23886;46.614;14.276;2022-12-22T09:57:23;11.40;;;10.20;;
12314;SDS011;23886;46.614;14.276;2022-12-22T09:59:54;11.97;;;10.73;;
12314;SDS011;23886;46.614;14.276;2022-12-22T10:02:24;12.33;;;10.87;;
12314;SDS011;23886;46.614;14.276;2022-12-22T10:05:03;11.83;;;10.23;;
12314;SDS011;23886;46.614;14.276;2022-12-22T10:07:40;11.97;;;10.47;;
12314;SDS011;23886;46.614;14.276;2022-12-22T10:10:14;12.27;;;10.70;;
12314;SDS011;23886;46.614;14.276;2022-12-22T10:12:53;12.77;;;10.90;;
12314;SDS011;23886;46.614;14.276;2022-12-22T10:15:21;11.80;;;10.57;;
12314;SDS011;23886;46.614;14.276;2022-12-22T10:17:49;11.77;;;10.43;;
12314;SDS011;23886;46.614;14.276;2022-12-22T10:20:22;10.93;;;9.77;;
12314;SDS011;23886;46.614;14.276;2022-12-22T10:22:52;11.20;;;9.80;;
12314;SDS011;23886;46.614;14.276;2022-12-22T10:25:23;11.97;;;10.40;;
12314;SDS011;23886;46.614;14.276;2022-12-22T10:28:01;12.40;;;10.73;;
12314;SDS011;23886;46.614;14.276;2022-12-22T10:30:31;13.13;;;10.77;;
12314;SDS011;23886;46.614;14.276;2022-12-22T10:33:04;13.87;;;10.70;;
12314;SDS011;23886;46.614;14.276;2022-12-22T10:35:45;13.50;;;11.40;;
12314;SDS011;23886;46.614;14.276;2022-12-22T10:38:17;13.03;;;11.63;;
12314;SDS011;23886;46.614;14.276;2022-12-22T10:40:47;12.80;;;11.43;;
12314;SDS011;23886;46.614;14.276;2022-12-22T10:43:21;12.93;;;11.53;;
12314;SDS011;23886;46.614;14.276;2022-12-22T10:45:51;13.30;;;11.60;;
12314;SDS011;23886;46.614;14.276;2022-12-22T10:48:26;14.03;;;12.13;;
12314;SDS011;23886;46.614;14.276;2022-12-22T10:50:54;16.03;;;12.20;;
12314;SDS011;23886;46.614;14.276;2022-12-22T10:53:36;15.97;;;13.50;;
12314;SDS011;23886;46.614;14.276;2022-12-22T10:56:21;13.90;;;12.13;;
12314;SDS011;23886;46.614;14.276;2022-12-22T10:58:52;13.60;;;11.67;;
12314;SDS011;23886;46.614;14.276;2022-12-22T11:01:25;13.90;;;12.33;;
12314;SDS011;23886;46.614;14.276;2022-12-22T11:03:55;15.27;;;12.17;;
12314;SDS011;23886;46.614;14.276;2022-12-22T11:06:22;14.03;;;11.57;;
12314;SDS011;23886;46.614;14.276;2022-12-22T11:08:49;17.23;;;13.43;;
12314;SDS011;23886;46.614;14.276;2022-12-22T11:11:21;14.83;;;12.63;;
12314;SDS011;23886;46.614;14.276;2022-12-22T11:14:00;16.57;;;13.83;;
12314;SDS011;23886;46.614;14.276;2022-12-22T11:16:34;17.07;;;13.93;;
12314;SDS011;23886;46.614;14.276;2022-12-22T11:19:15;16.33;;;13.03;;
12314;SDS011;23886;46.614;14.276;2022-12-22T11:22:05;15.93;;;12.67;;
12314;SDS011;23886;46.614;14.276;2022-12-22T11:24:45;18.07;;;13.73;;
12314;SDS011;23886;46.614;14.276;2022-12-22T11:27:25;17.50;;;13.70;;
12314;SDS011;23886;46.614;14.276;2022-12-22T11:30:08;21.00;;;15.37;;
12314;SDS011;23886;46.614;14.276;2022-12-22T11:32:44;18.27;;;13.80;;
12314;SDS011;23886;46.614;14.276;2022-12-22T11:35:35;17.47;;;13.87;;
12314;SDS011;23886;46.614;14.276;2022-12-22T11:38:12;18.70;;;14.83;;
12314;SDS011;23886;46.614;14.276;2022-12-22T11:40:48;19.47;;;15.30;;
12314;SDS011;23886;46.614;14.276;2022-12-22T11:43:22;17.53;;;14.03;;
12314;SDS011;23886;46.614;14.276;2022-12-22T11:46:03;19.67;;;15.67;;
12314;SDS011;23886;46.614;14.276;2022-12-22T11:49:02;18.23;;;13.87;;
12314;SDS011;23886;46.614;14.276;2022-12-22T11:51:45;16.17;;;13.60;;
12314;SDS011;23886;46.614;14.276;2022-12-22T11:54:33;20.30;;;15.10;;
12314;SDS011;23886;46.614;14.276;2022-12-22T11:57:30;19.33;;;15.33;;
12314;SDS011;23886;46.614;14.276;2022-12-22T12:00:06;18.90;;;15.13;;
12314;SDS011;23886;46.614;14.276;2022-12-22T12:05:56;19.50;;;15.03;;
12314;SDS011;23886;46.614;14.276;2022-12-22T12:08:35;16.23;;;12.47;;
12314;SDS011;23886;46.614;14.276;2022-12-22T12:11:15;17.80;;;14.57;;
12314;SDS011;23886;46.614;14.276;2022-12-22T12:13:49;18.73;;;14.67;;
12314;SDS011;23886;46.614;14.276;2022-12-22T12:16:28;14.60;;;12.97;;
12314;SDS011;23886;46.614;14.276;2022-12-22T12:19:07;16.63;;;12.77;;
12314;SDS011;23886;46.614;14.276;2022-12-22T12:21:56;14.27;;;11.97;;
12314;SDS011;23886;46.614;14.276;2022-12-22T12:24:26;14.33;;;12.00;;
12314;SDS011;23886;46.614;14.276;2022-12-22T12:27:07;12.00;;;9.87;;
12314;SDS011;23886;46.614;14.276;2022-12-22T12:29:45;12.97;;;10.53;;
12314;SDS011;23886;46.614;14.276;2022-12-22T12:32:24;12.63;;;10.30;;
12314;SDS011;23886;46.614;14.276;2022-12-22T12:34:59;10.63;;;9.10;;
12314;SDS011;23886;46.614;14.276;2022-12-22T12:37:36;11.87;;;10.47;;
12314;SDS011;23886;46.614;14.276;2022-12-22T12:40:06;12.20;;;10.40;;
12314;SDS011;23886;46.614;14.276;2022-12-22T12:42:52;13.80;;;11.43;;
12314;SDS011;23886;46.614;14.276;2022-12-22T12:45:33;12.55;;;11.18;;
12314;SDS011;23886;46.614;14.276;2022-12-22T12:59:52;12.33;;;10.53;;
12314;SDS011;23886;46.614;14.276;2022-12-22T13:02:36;12.57;;;11.00;;
12314;SDS011;23886;46.614;14.276;2022-12-22T13:05:13;12.40;;;10.63;;
12314;SDS011;23886;46.614;14.276;2022-12-22T13:08:12;11.67;;;10.47;;
12314;SDS011;23886;46.614;14.276;2022-12-22T13:10:42;12.60;;;11.00;;
12314;SDS011;23886;46.614;14.276;2022-12-22T13:13:12;13.30;;;10.67;;
12314;SDS011;23886;46.614;14.276;2022-12-22T13:19:15;14.63;;;11.33;;
12314;SDS011;23886;46.614;14.276;2022-12-22T13:21:48;14.47;;;11.87;;
12314;SDS011;23886;46.614;14.276;2022-12-22T13:24:18;13.53;;;11.50;;
12314;SDS011;23886;46.614;14.276;2022-12-22T13:26:54;14.03;;;11.40;;
12314;SDS011;23886;46.614;14.276;2022-12-22T13:29:27;13.43;;;11.20;;
12314;SDS011;23886;46.614;14.276;2022-12-22T13:31:58;16.13;;;12.60;;
12314;SDS011;23886;46.614;14.276;2022-12-22T13:34:31;16.37;;;13.33;;
12314;SDS011;23886;46.614;14.276;2022-12-22T13:37:12;16.03;;;12.63;;
12314;SDS011;23886;46.614;14.276;2022-12-22T13:42:44;15.90;;;13.17;;
12314;SDS011;23886;46.614;14.276;2022-12-22T13:45:15;15.53;;;13.57;;
12314;SDS011;23886;46.614;14.276;2022-12-22T13:47:53;17.23;;;13.83;;
12314;SDS011;23886;46.614;14.276;2022-12-22T13:50:21;16.70;;;14.73;;
12314;SDS011;23886;46.614;14.276;2022-12-22T13:52:52;13.87;;;12.30;;
12314;SDS011;23886;46.614;14.276;2022-12-22T13:55:22;14.83;;;12.60;;
12314;SDS011;23886;46.614;14.276;2022-12-22T13:57:52;13.37;;;11.87;;
12314;SDS011;23886;46.614;14.276;2022-12-22T14:00:20;13.70;;;11.93;;
12314;SDS011;23886;46.614;14.276;2022-12-22T14:02:48;13.40;;;11.87;;
12314;SDS011;23886;46.614;14.276;2022-12-22T14:05:16;16.17;;;12.07;;
12314;SDS011;23886;46.614;14.276;2022-12-22T14:07:57;14.43;;;12.33;;
12314;SDS011;23886;46.614;14.276;2022-12-22T14:10:31;14.20;;;12.53;;
12314;SDS011;23886;46.614;14.276;2022-12-22T14:13:01;14.93;;;12.63;;
12314;SDS011;23886;46.614;14.276;2022-12-22T14:15:31;14.13;;;12.20;;
12314;SDS011;23886;46.614;14.276;2022-12-22T14:17:59;13.57;;;11.87;;
12314;SDS011;23886;46.614;14.276;2022-12-22T14:20:26;15.60;;;13.10;;
12314;SDS011;23886;46.614;14.276;2022-12-22T14:23:00;15.37;;;12.60;;
12314;SDS011;23886;46.614;14.276;2022-12-22T14:25:32;15.07;;;12.67;;
12314;SDS011;23886;46.614;14.276;2022-12-22T14:28:01;14.27;;;11.90;;
12314;SDS011;23886;46.614;14.276;2022-12-22T14:30:33;14.40;;;12.57;;
12314;SDS011;23886;46.614;14.276;2022-12-22T14:36:02;18.03;;;14.43;;
12314;SDS011;23886;46.614;14.276;2022-12-22T14:38:41;14.90;;;12.40;;
12314;SDS011;23886;46.614;14.276;2022-12-22T14:41:12;16.97;;;13.00;;
12314;SDS011;23886;46.614;14.276;2022-12-22T14:43:58;15.67;;;12.67;;
12314;SDS011;23886;46.614;14.276;2022-12-22T14:46:27;14.23;;;12.10;;
12314;SDS011;23886;46.614;14.276;2022-12-22T14:48:54;14.50;;;12.10;;
12314;SDS011;23886;46.614;14.276;2022-12-22T14:51:23;15.43;;;13.17;;
12314;SDS011;23886;46.614;14.276;2022-12-22T14:53:51;14.67;;;11.63;;
12314;SDS011;23886;46.614;14.276;2022-12-22T14:56:22;13.90;;;11.67;;
12314;SDS011;23886;46.614;14.276;2022-12-22T14:58:50;13.50;;;11.03;;
12314;SDS011;23886;46.614;14.276;2022-12-22T15:01:32;12.30;;;10.13;;
12314;SDS011;23886;46.614;14.276;2022-12-22T15:04:00;13.47;;;10.27;;
12314;SDS011;23886;46.614;14.276;2022-12-22T15:06:32;13.00;;;10.23;;
12314;SDS011;23886;46.614;14.276;2022-12-22T15:09:06;13.00;;;11.10;;
12314;SDS011;23886;46.614;14.276;2022-12-22T15:11:50;13.50;;;10.37;;
12314;SDS011;23886;46.614;14.276;2022-12-22T15:14:20;13.97;;;11.33;;
12314;SDS011;23886;46.614;14.276;2022-12-22T15:16:48;13.67;;;11.53;;